Weather observations for the past three days for
Brooks Field Airport
Imperial (Metric)
Date Time (edt) Wind (mph) Vis. (mi.) Weather Sky Cond. Temperature (ºF) Relative Humidity Wind Chill (°F) Heat Index (°F) Pressure Precipitation (in)
Air Dwpt 6 hour altimeter (in) sea level (mb) 1 hr 3 hr 6 hr
Max. Min.
05 13:56 Vrbl 6 10.00 Overcast FEW012 OVC027 75.2 69.8 83% 75 29.99 0.0
05 13:35 E 6 6.00 Overcast with Haze SCT010 BKN019 OVC027 75.2 69.8 83% 75 29.99 0.0
05 13:15 NE 6 9.00 Overcast BKN010 OVC019 73.4 69.8 89% 29.99 0.0
05 12:55 Vrbl 6 6.00 Overcast with Haze BKN008 BKN012 OVC020 75.2 69.8 83% 75 29.99 0.0
05 12:35 E 5 5.00 Fog/Mist OVC006 71.6 69.8 94% 29.99 0.0
05 12:15 Vrbl 6 5.00 Fog/Mist SCT006 BKN010 OVC017 71.6 69.8 94% 29.99 0.0
05 11:55 E 7 6.00 Overcast with Haze SCT008 OVC017 73.4 69.8 89% 29.99 0.0
05 11:36 NE 6 2.50 Fog/Mist FEW008 OVC015 73.4 69.8 89% 29.99 0.0
05 11:15 E 5 4.00 Fog/Mist FEW010 OVC015 73.4 69.8 89% 29.99 0.0
05 10:55 NE 5 6.00 Fog/Mist BKN009 OVC014 73.4 69.8 89% 29.98 0.0
05 10:35 E 8 6.00 Fog/Mist BKN008 OVC012 73.4 69.8 89% 29.98 0.0
05 10:15 E 5 4.00 Fog/Mist OVC006 71.6 69.8 94% 29.97 0.0
05 09:55 E 3 4.00 Fog/Mist OVC006 71.6 69.8 94% 29.97 0.0
05 09:35 E 3 4.00 Fog/Mist OVC006 71.6 69.8 94% 29.96 0.0
05 09:16 E 5 3.00 Fog/Mist BKN006 OVC047 71.6 69.8 94% 29.96 0.0
05 08:55 Vrbl 5 3.00 Fog/Mist BKN004 BKN016 OVC047 69.8 69.8 100% 29.96 0.0
05 08:35 E 3 4.00 Fog/Mist OVC002 69.8 69.8 100% 29.97 0.0
05 08:15 E 3 4.00 Fog/Mist OVC002 69.8 69.8 100% 29.96 0.0
05 07:55 E 5 8.00 Overcast OVC002 68 68 70.5 65.1 100% 29.96 0.0
05 07:35 E 7 0.50 Fog BKN002 68 68 100% 29.95 0.0
05 07:15 E 5 0.25 Fog OVC002 68 68 100% 29.94 0.0
05 06:56 NE 3 1.25 Fog/Mist OVC002 66.2 66.2 100% 29.94 0.0
05 06:35 E 2 0.25 Fog BKN002 64.4 64.4 100% 29.93 0.0
05 06:15 E 1 0.75 Fog/Mist VV005 66.2 66.2 100% 29.94 0.0
05 05:55 SE 2 1.75 Fog/Mist CLR 66.2 66.2 100% 29.93 0.0
05 05:35 NE 2 6.00 Fog/Mist CLR 68 68 100% 29.94 0.0
05 05:15 NE 2 8.00 Fair CLR 68 68 100% 29.94 0.0
05 04:55 NE 3 10.00 Fair CLR 68 68 100% 29.94 0.0
05 04:36 NE 3 10.00 Fair CLR 68 68 100% 29.93 0.0
05 04:15 NE 2 8.00 Fair CLR 68 68 100% 29.92 0.0
05 03:55 Vrbl 1 10.00 Fair CLR 69.8 68 94% 29.91 0.0
05 03:35 E 5 10.00 A Few Clouds FEW048 69.8 68 94% 29.92 0.0
05 03:15 S 6 10.00 Mostly Cloudy SCT048 BKN060 BKN085 69.8 69.8 100% 29.95 0.0
05 02:55 Calm 10.00 A Few Clouds FEW080 69.8 68 94% 29.95 0.0
05 02:35 S 3 10.00 A Few Clouds FEW080 69.8 68 94% 29.95 0.0
05 02:16 S 2 10.00 Fair CLR 69.8 68 94% 29.94 0.0
05 01:55 S 3 10.00 Mostly Cloudy FEW038 SCT070 BKN080 69.8 69.8 74.1 68.9 100% 29.93 0.0 0.01
05 01:35 Vrbl 3 10.00 Light Rain BKN039 BKN046 OVC055 69.8 69.8 100% 29.95 0.0
05 01:15 Vrbl 2 10.00 Mostly Cloudy BKN037 71.6 69.8 94% 29.95 0.0
05 00:55 SE 3 10.00 Partly Cloudy SCT039 SCT050 69.8 69.8 100% 29.96 0.0
05 00:35 Vrbl 2 10.00 Mostly Cloudy FEW041 BKN050 BKN060 71.6 69.8 94% 29.96 0.0
05 00:15 SE 3 10.00 Mostly Cloudy BKN048 71.6 69.8 94% 29.96 0.0
04 23:56 Vrbl 3 3.00 Light Rain Fog/Mist BKN046 BKN050 BKN080 71.6 69.8 94% 29.97 0.0
04 23:35 E 3 10.00 Overcast BKN045 OVC060 71.6 69.8 94% 29.96 0.0
04 23:15 SE 3 10.00 Overcast SCT038 BKN045 OVC060 71.6 69.8 94% 29.97 0.0
04 22:55 SE 6 10.00 Overcast BKN040 OVC060 69.8 69.8 100% 29.97 0.0
04 22:35 E 2 10.00 Mostly Cloudy SCT040 SCT060 BKN075 69.8 68 94% 29.98 0.0
04 22:15 E 1 10.00 Partly Cloudy FEW039 SCT090 SCT110 69.8 69.8 100% 29.98 0.0
04 21:55 NE 2 10.00 Partly Cloudy SCT100 71.6 69.8 94% 29.98 0.0
04 21:15 E 3 10.00 Mostly Cloudy FEW070 BKN100 71.6 69.8 94% 29.98 0.0
04 20:55 E 2 10.00 Mostly Cloudy BKN100 71.6 69.8 94% 29.97 0.0
04 20:35 E 3 10.00 Partly Cloudy SCT100 73.4 69.8 89% 29.97 0.0
04 20:15 E 3 10.00 Mostly Cloudy FEW080 BKN110 73.4 71.6 94% 29.97 0.0
04 19:55 E 3 10.00 Overcast SCT080 OVC100 75.2 71.6 78.1 71.1 89% 75 29.97 0.0
04 19:35 SE 2 10.00 Overcast OVC080 75.2 71.6 89% 75 29.97 0.0
04 19:16 E 2 10.00 Overcast OVC090 75.2 71.6 89% 75 29.97 0.0
04 18:55 E 2 10.00 Partly Cloudy FEW075 SCT100 77 69.8 79% 79 29.96 0.0
04 18:35 SE 5 10.00 Fair CLR 77 71.6 83% 78 29.95 0.0
04 18:15 NE 6 10.00 Fair CLR 77 71.6 83% 78 29.95 0.0
04 17:55 NE 5 10.00 Fair CLR 77 69.8 79% 79 29.95 0.0
04 17:35 Vrbl 2 10.00 Fair CLR 77 69.8 79% 79 29.95 0.0
04 17:15 Vrbl 2 10.00 Fair CLR 77 69.8 79% 79 29.94 0.0
04 16:56 Vrbl 3 10.00 Fair CLR 75.2 69.8 83% 75 29.94 0.0
04 16:35 Vrbl 3 10.00 Fair CLR 75.2 69.8 83% 75 29.94 0.0
04 16:15 Vrbl 2 10.00 A Few Clouds FEW008 75.2 69.8 83% 75 29.94 0.0
04 15:55 Vrbl 2 10.00 Partly Cloudy SCT008 73.4 69.8 89% 29.95 0.0
04 15:35 Vrbl 1 10.00 A Few Clouds FEW010 73.4 69.8 89% 29.95 0.0
04 15:15 Vrbl 2 10.00 A Few Clouds FEW011 73.4 69.8 89% 29.96 0.0
04 14:55 Vrbl 1 10.00 Mostly Cloudy BKN013 71.6 69.8 94% 29.98 0.0
04 14:36 Vrbl 3 10.00 A Few Clouds FEW013 71.6 69.8 94% 29.98 0.0
04 14:15 W 8 10.00 Fair CLR 71.6 69.8 94% 29.98 0.0
04 13:55 SW 8 9.00 Partly Cloudy FEW085 SCT110 71.6 69.8 73.2 68.2 94% 29.97 0.0 0.01
04 13:35 S 14 G 18 10.00 Light Rain SCT110 71.6 69.8 94% 29.92 0.0
04 13:15 SW 12 10.00 Light Rain FEW110 71.6 69.8 94% 30 0.0
04 12:55 SW 8 10.00 Partly Cloudy SCT120 73.4 69.8 89% 29.97 0.0
04 12:35 S 7 10.00 Mostly Cloudy FEW075 SCT100 BKN120 71.6 69.8 94% 29.96 0.0
04 12:16 Vrbl 5 10.00 Overcast SCT075 BKN090 OVC110 69.8 68 94% 29.97 0.0
04 11:55 S 7 10.00 Light Rain FEW055 BKN100 BKN120 69.8 68 94% 29.98 0.0 0.03
04 11:35 S 6 8.00 Light Rain BKN100 OVC120 68 68 100% 30.03 0.0
04 11:15 S 5 5.00 Light Rain Fog/Mist SCT075 BKN100 OVC120 68 68 100% 30.06 0.0
04 10:55 E 3 1.25 Rain Fog/Mist OVC005 68 68 100% 30.07 0.0 0.15
04 10:35 Vrbl 3 2.00 Light Rain Fog/Mist BKN007 OVC010 68 68 100% 30.08 0.0
04 10:15 Vrbl 3 10.00 Light Rain BKN009 BKN038 OVC060 68 68 100% 30.08 0.0
04 09:56 E 5 5.00 Light Rain Fog/Mist SCT038 BKN060 OVC110 68 68 100% 30.03 0.0
04 09:35 E 5 5.00 Light Rain Fog/Mist OVC095 68 68 100% 30.02 0.0
04 09:15 NE 5 4.00 Light Rain Fog/Mist FEW035 BKN095 OVC110 68 68 100% 30.01 0.0
04 08:55 Vrbl 7 8.00 Light Rain SCT034 BKN055 OVC080 69.8 68 94% 30.04 0.0
04 08:35 NW 6 10.00 Partly Cloudy FEW050 SCT080 69.8 68 94% 30.01 0.0
04 08:15 Vrbl 2 10.00 Fair CLR 69.8 68 94% 29.97 0.0
04 07:55 S 7 10.00 Fair CLR 69.8 68 70.3 65.8 94% 29.97 0.0
04 07:36 Vrbl 3 10.00 Fair CLR 69.8 68 94% 29.97 0.0
04 07:15 SE 6 10.00 A Few Clouds FEW060 FEW120 69.8 68 94% 29.97 0.0
04 06:55 SE 6 10.00 Partly Cloudy SCT050 SCT085 SCT120 69.8 68 94% 29.99 0.0
04 06:35 SE 6 10.00 Mostly Cloudy SCT030 BKN050 BKN060 69.8 68 94% 29.98 0.0
04 06:15 E 8 10.00 Overcast FEW020 BKN027 OVC055 69.8 68 94% 29.99 0.0
04 05:55 Vrbl 3 10.00 Mostly Cloudy FEW010 BKN055 BKN090 69.8 68 94% 29.99 0.0
04 05:35 NE 2 10.00 Partly Cloudy FEW049 FEW075 SCT110 69.8 68 94% 29.94 0.0
04 05:16 SE 5 10.00 Mostly Cloudy BKN046 BKN060 BKN110 69.8 68 94% 29.92 0.0
04 04:55 SE 2 10.00 Overcast BKN044 OVC050 68 66.2 94% 29.94 0.0
04 04:35 SE 3 10.00 Mostly Cloudy SCT044 BKN110 68 66.2 94% 29.95 0.0
04 04:15 SE 3 10.00 Partly Cloudy FEW090 SCT110 66.2 66.2 100% 29.95 0.0
04 03:55 E 3 10.00 Partly Cloudy SCT090 68 66.2 94% 29.96 0.0
04 03:35 E 3 10.00 Fair CLR 66.2 66.2 100% 29.95 0.0
04 03:15 SE 2 10.00 Fair CLR 66.2 66.2 100% 29.95 0.0
04 02:56 SE 2 10.00 Fair CLR 66.2 66.2 100% 29.97 0.0
04 02:35 E 2 10.00 Fair CLR 66.2 66.2 100% 29.98 0.0
04 02:15 E 2 10.00 Fair CLR 66.2 66.2 100% 29.98 0.0
04 01:55 SE 1 10.00 Fair CLR 66.2 66.2 71.8 66.2 100% 29.99 0.0
04 01:35 E 2 8.00 Fair CLR 66.2 66.2 100% 29.99 0.0
04 01:15 E 2 10.00 Fair CLR 68 66.2 94% 29.98 0.0
04 00:55 SE 2 10.00 Fair CLR 68 68 100% 29.99 0.0
04 00:36 SE 2 10.00 A Few Clouds FEW120 68 66.2 94% 29.99 0.0
04 00:15 Calm 10.00 Fair CLR 68 66.2 94% 30 0.0
03 23:55 N 2 10.00 Fair CLR 66.2 66.2 100% 30 0.0
03 23:35 Calm 10.00 Fair CLR 66.2 66.2 100% 30 0.0
03 23:15 S 2 10.00 Fair CLR 66.2 66.2 100% 29.99 0.0
03 22:55 N 1 10.00 Fair CLR 66.2 66.2 100% 30 0.0
03 22:35 NE 2 10.00 Fair CLR 68 66.2 94% 29.99 0.0
03 22:16 E 2 10.00 Fair CLR 68 68 100% 29.99 0.0
03 21:55 SE 1 10.00 Fair CLR 68 68 100% 29.99 0.0
03 21:35 Calm 10.00 Fair CLR 68 68 100% 29.99 0.0
03 21:15 SE 1 10.00 Fair CLR 68 68 100% 29.98 0.0
03 20:55 SE 2 10.00 Fair CLR 69.8 68 94% 29.98 0.0
03 20:35 E 2 10.00 Fair CLR 69.8 68 94% 29.98 0.0
03 20:15 Vrbl 1 10.00 Fair CLR 71.6 68 88% 29.98 0.0
03 19:56 S 5 10.00 Fair CLR 71.6 68 88% 29.97 0.0
03 19:35 SE 5 10.00 Fair CLR 73.4 68 83% 29.96 0.0
03 19:15 SE 7 10.00 Fair CLR 73.4 69.8 89% 29.96 0.0
03 18:55 E 9 10.00 Fair CLR 73.4 69.8 89% 29.97 0.0
03 18:35 E 7 10.00 A Few Clouds FEW100 FEW120 73.4 69.8 89% 29.97 0.0
03 18:15 SE 6 10.00 A Few Clouds FEW050 FEW060 FEW120 73.4 69.8 89% 29.96 0.0
03 17:55 E 7 10.00 Light Rain FEW031 SCT070 BKN100 71.6 69.8 94% 29.96 0.0 0.02
03 17:36 E 3 4.00 Light Rain Fog/Mist FEW060 SCT080 OVC100 71.6 68 88% 29.98 0.0
03 17:15 NE 6 10.00 Mostly Cloudy SCT070 BKN090 BKN120 73.4 68 83% 30.01 0.0
03 16:55 Vrbl 3 10.00 Partly Cloudy SCT100 SCT120 73.4 68 83% 30.01 0.0
03 16:35 Vrbl 3 10.00 Fair CLR 73.4 68 83% 30 0.0
03 16:15 Vrbl 6 10.00 A Few Clouds FEW015 FEW021 FEW029 73.4 69.8 89% 29.99 0.0
03 15:55 N 8 10.00 A Few Clouds FEW020 78.8 73.4 84% 82 29.97 0.0 0.05
03 15:35 Vrbl 7 10.00 Partly Cloudy SCT036 SCT047 SCT070 77 73.4 89% 78 29.98 0.0
03 15:16 Vrbl 6 2.50 Heavy Rain Haze SCT030 BKN035 OVC070 75.2 71.6 89% 75 29.97 0.0
03 14:55 W 12 G 24 10.00 Mostly Cloudy BKN070 BKN085 BKN110 87.8 73.4 62% 96 29.94 0.0
03 14:35 W 13 10.00 Mostly Cloudy SCT044 SCT050 BKN070 87.8 75.2 66% 98 29.94 0.0
03 14:15 W 10 10.00 Overcast SCT044 BKN070 OVC110 87.8 75.2 66% 98 29.95 0.0
03 13:55 W 7 10.00 Partly Cloudy SCT110 89.6 77 90 75.7 67% 103 29.96 0.0
03 13:35 W 8 10.00 Fair CLR 89.6 75.2 63% 100 29.95 0.0
03 13:15 W 9 10.00 Fair CLR 87.8 73.4 62% 96 29.94 0.0
03 12:56 SW 8 10.00 Fair CLR 89.6 75.2 63% 100 29.93 0.0
03 12:35 SW 7 10.00 A Few Clouds FEW100 87.8 75.2 66% 98 29.94 0.0
03 12:15 S 6 10.00 Mostly Cloudy BKN100 86 75.2 70% 95 29.95 0.0
03 11:55 S 5 10.00 Mostly Cloudy BKN100 84.2 75.2 74% 92 29.96 0.0
03 11:35 S 5 10.00 Partly Cloudy SCT100 84.2 75.2 74% 92 29.97 0.0
03 11:15 Vrbl 5 10.00 Fair CLR 82.4 75.2 79% 89 29.97 0.0
03 10:55 S 5 10.00 A Few Clouds FEW090 80.6 73.4 79% 85 29.97 0.0
03 10:36 Vrbl 3 10.00 Fair CLR 78.8 71.6 79% 82 29.97 0.0
03 10:15 E 2 10.00 Fair CLR 77 69.8 79% 79 29.97 0.0
03 09:55 E 3 10.00 A Few Clouds FEW080 77 71.6 83% 78 29.97 0.0
03 09:35 E 2 10.00 Partly Cloudy FEW014 SCT070 SCT080 75.2 71.6 89% 75 29.98 0.0
03 09:15 N 6 10.00 Fair CLR 77 73.4 89% 78 30 0.0
03 08:55 SW 6 10.00 A Few Clouds FEW070 77 73.4 89% 78 29.98 0.0
03 08:35 SW 5 10.00 A Few Clouds FEW070 78.8 73.4 84% 82 29.96 0.0
03 08:16 SW 7 10.00 Fair CLR 77 73.4 89% 78 29.97 0.0
03 07:55 SW 5 10.00 Fair CLR 77 73.4 76.5 72 89% 78 29.98 0.0
03 07:35 SW 5 10.00 Fair CLR 75.2 73.4 94% 74 29.97 0.0
03 07:15 SW 5 10.00 Fair CLR 75.2 73.4 94% 74 29.97 0.0
03 06:55 SW 5 10.00 Fair CLR 75.2 73.4 94% 74 29.97 0.0
03 06:35 SW 3 10.00 Fair CLR 75.2 73.4 94% 74 29.96 0.0
03 06:15 SW 3 10.00 Fair CLR 75.2 73.4 94% 74 29.96 0.0
03 05:56 SW 2 10.00 Fair CLR 73.4 73.4 100% 29.96 0.0
03 05:35 W 2 9.00 Fair CLR 73.4 73.4 100% 29.96 0.0
03 05:15 SW 2 6.00 Fog/Mist CLR 73.4 73.4 100% 29.96 0.0
03 04:55 S 2 6.00 Fog/Mist CLR 71.6 71.6 100% 29.96 0.0
03 04:35 SE 1 7.00 Fog/Mist CLR 71.6 71.6 100% 29.95 0.0
03 04:15 Calm 5.00 Fog/Mist CLR 73.4 73.4 100% 29.96 0.0
03 03:55 NW 2 10.00 Fair CLR 75.2 73.4 94% 74 29.95 0.0
03 03:36 W 2 10.00 Fair CLR 75.2 73.4 94% 74 29.95 0.0
03 03:15 W 3 10.00 A Few Clouds FEW100 75.2 73.4 94% 74 29.95 0.0
03 02:55 W 3 10.00 Mostly Cloudy BKN100 77 73.4 89% 78 29.95 0.0
03 02:35 W 3 10.00 Overcast OVC110 77 73.4 89% 78 29.95 0.0
03 02:15 SW 3 10.00 Overcast OVC100 77 73.4 89% 78 29.95 0.0
03 01:55 SW 2 10.00 Mostly Cloudy BKN100 BKN120 75.2 73.4 86.4 74.5 94% 74 29.95 0.0
03 01:35 SW 2 10.00 Mostly Cloudy SCT100 BKN120 75.2 75.2 100% 73 29.95 0.0
03 01:16 S 1 10.00 A Few Clouds FEW120 75.2 73.4 94% 74 29.95 0.0
03 00:35 SW 1 10.00 Fair CLR 77 75.2 94% 78 29.94 0.0
03 00:15 W 3 10.00 Fair CLR 78.8 75.2 89% 82 29.94 0.0
02 23:55 NW 3 10.00 Fair CLR 78.8 75.2 89% 82 29.93 0.0
02 23:35 SW 8 10.00 Fair CLR 80.6 75.2 84% 86 29.93 0.0
02 23:15 SW 8 10.00 Fair CLR 80.6 75.2 84% 86 29.93 0.0
02 22:56 SW 6 10.00 Fair CLR 80.6 75.2 84% 86 29.92 0.0
02 22:35 SW 6 10.00 Fair CLR 82.4 75.2 79% 89 29.93 0.0
02 22:15 SW 6 10.00 Fair CLR 82.4 75.2 79% 89 29.94 0.0
02 21:55 SW 3 10.00 Fair CLR 80.6 75.2 84% 86 29.93 0.0
02 21:35 SW 2 10.00 Fair CLR 80.6 73.4 79% 85 29.93 0.0
02 21:15 Calm 10.00 Fair CLR 78.8 73.4 84% 82 29.93 0.0
02 20:55 Calm 10.00 Fair CLR 82.4 73.4 74% 88 29.92 0.0
02 20:36 SW 3 10.00 Fair CLR 84.2 73.4 70% 91 29.92 0.0
02 20:15 SW 5 10.00 Fair CLR 84.2 73.4 70% 91 29.91 0.0
02 19:55 SW 7 10.00 Fair CLR 86 73.4 92.3 86 66% 93 29.92 0.0
02 19:35 W 8 10.00 Fair CLR 87.8 73.4 62% 96 29.92 0.0
02 19:15 SW 6 10.00 Fair CLR 87.8 73.4 62% 96 29.91 0.0
02 18:55 SW 7 10.00 Fair CLR 89.6 71.6 55% 96 29.91 0.0
02 18:35 SW 8 10.00 Fair CLR 89.6 69.8 52% 95 29.91 0.0
02 18:16 SW 8 10.00 Fair CLR 91.4 69.8 49% 97 29.91 0.0
02 17:55 SW 12 G 16 10.00 Fair CLR 91.4 71.6 52% 99 29.91 0.0
02 17:35 SW 9 10.00 Fair CLR 91.4 71.6 52% 99 29.92 0.0
02 17:15 SW 8 10.00 Fair CLR 91.4 69.8 49% 97 29.92 0.0
02 16:55 SW 12 10.00 Fair CLR 91.4 69.8 49% 97 29.92 0.0
02 16:35 W 10 10.00 Fair CLR 91.4 69.8 49% 97 29.93 0.0
Date Time (edt) Wind (mph) Vis. (mi.) Weather Sky Cond. Air Dwpt Max. Min. Relative Humidity Wind Chill (°F) Heat Index (°F) altimeter (in) sea level (mb) 1 hr 3 hr 6 hr
6 hour
Temperature (ºF) Pressure Precipitation (in)